Front Thor — V7SL4 — position and weather

sailwx.info

Track history (hours):
 
Tides and Currents Weather Stations Pressure Air Temp Water Temp Dewpoint Dewpoint Depression Visibility Wind Speed Wind Dir Waves Ship Positions

Front Thor

Last reported at 2018-Jan-18 12:46 UTC. Time now 2018-Jan-19 21:37 UTC.
Position N 38°50' W 075°04'.

Length 275 m; draft 9.3 m.

Type: Tanker. MMSI: 538003675.

Date/timePositionNaut miles runAvg speedWind from/ knotsBaromVisibWave heightAir tempDewpointWater temp
2018-Jan-18 12:46N 38°50' W 075°04'1411.2
2018-Jan-18 11:33N 39°03' W 075°10'312.6
2018-Jan-18 11:20N 39°05' W 075°11'413.1
2018-Jan-18 11:00N 39°09' W 075°14'713.8
2018-Jan-18 10:30N 39°15' W 075°19'815.8
2018-Jan-18 10:00N 39°21' W 075°26'815.8
2018-Jan-18 09:30N 39°26' W 075°33'713.4
2018-Jan-18 09:01N 39°33' W 075°32'611.8
2018-Jan-18 08:30N 39°39' W 075°33'612.4
2018-Jan-18 08:00N 39°45' W 075°30'510.5
2018-Jan-18 07:30N 39°48' W 075°25'4 7.5
2018-Jan-18 07:00N 39°51' W 075°21'4 7.5
2018-Jan-18 06:30N 39°51' W 075°16'2 5.0
2018-Jan-18 06:00N 39°52' W 075°13'0 0.2
2018-Jan-18 05:30N 39°52' W 075°13'0 0.0
2018-Jan-18 05:00N 39°52' W 075°13'0 0.0
2018-Jan-18 04:30N 39°52' W 075°13'0 0.0
2018-Jan-18 04:00N 39°52' W 075°13'0 0.0
2018-Jan-18 03:30N 39°52' W 075°13'0 0.0
2018-Jan-18 03:00N 39°52' W 075°13'0 0.0
2018-Jan-18 02:30N 39°52' W 075°13'0 0.0
2018-Jan-18 02:00N 39°52' W 075°13'0 0.0
2018-Jan-18 01:30N 39°52' W 075°13'0 0.0
2018-Jan-18 01:00N 39°52' W 075°13'0 0.0
2018-Jan-18 00:00N 39°52' W 075°13'0 0.1
2018-Jan-17 23:57N 39°52' W 075°13'  
2018-Jan-12 05:40N 38°56' W 075°10'0 0.4
2018-Jan-12 05:28N 38°56' W 075°10'0 0.2
2018-Jan-12 04:49N 38°55' W 075°10'0 0.1
2018-Jan-12 04:25N 38°55' W 075°09'0 0.0
2018-Jan-12 02:01N 38°55' W 075°10'0 0.2
2018-Jan-12 00:31N 38°56' W 075°10'0 0.1
2018-Jan-12 00:28N 38°56' W 075°10'0 0.1
2018-Jan-11 23:52N 38°56' W 075°10'0 0.0
2018-Jan-11 09:16N 38°56' W 075°10'0 0.0
2018-Jan-11 07:55N 38°56' W 075°10'0 0.0
2018-Jan-11 07:28N 38°56' W 075°10'0 0.1
2018-Jan-11 05:04N 38°56' W 075°10'0 0.4
2018-Jan-11 04:55N 38°56' W 075°10'0 0.2
2018-Jan-11 04:04N 38°55' W 075°09'0 0.1
2018-Jan-11 03:58N 38°55' W 075°09'0 0.0
2018-Jan-11 03:28N 38°55' W 075°09'0 0.0
2018-Jan-11 02:37N 38°55' W 075°09'0 0.0
2018-Jan-11 02:25N 38°55' W 075°09'0 0.0
2018-Jan-11 01:55N 38°55' W 075°09'0 0.0
2018-Jan-10 23:49N 38°55' W 075°09'0 0.1
2018-Jan-10 19:04N 38°56' W 075°10'0 0.1
2018-Jan-10 19:01N 38°56' W 075°10'0 0.0
2018-Jan-10 18:19N 38°56' W 075°10'0 0.1
2018-Jan-10 15:10N 38°55' W 075°09'0 0.0
2018-Jan-10 14:52N 38°55' W 075°09'0 0.0
2018-Jan-10 14:28N 38°55' W 075°09'0 0.0
2018-Jan-10 13:58N 38°55' W 075°09'0 0.0
2018-Jan-10 13:30N 38°55' W 075°09'0 0.0
2018-Jan-10 13:01N 38°55' W 075°09'0 0.0
2018-Jan-10 12:25N 38°55' W 075°09'0 0.1
2018-Jan-10 11:55N 38°55' W 075°09'0 0.1
2018-Jan-10 10:43N 38°55' W 075°10'0 0.2
2018-Jan-10 10:31N 38°55' W 075°10'0 0.3
2018-Jan-10 10:01N 38°56' W 075°10'0 0.1
2018-Jan-10 09:22N 38°56' W 075°10'0 0.0
2018-Jan-09 15:52N 38°55' W 075°09'0 0.1
2018-Jan-09 15:28N 38°55' W 075°09'0 0.0
2018-Jan-09 14:57N 38°55' W 075°09'0 0.0
2018-Jan-09 14:30N 38°55' W 075°09'0 0.0
2018-Jan-09 13:57N 38°55' W 075°09'0 0.0
2018-Jan-09 13:30N 38°55' W 075°09'0 0.0
2018-Jan-09 13:00N 38°55' W 075°09'0 0.0
2018-Jan-09 12:30N 38°55' W 075°09'0 0.0
2018-Jan-09 12:00N 38°55' W 075°09'0 0.0
2018-Jan-09 11:27N 38°55' W 075°09'0 0.0
2018-Jan-09 11:00N 38°55' W 075°09'0 0.1
2018-Jan-09 10:27N 38°55' W 075°09'0 0.1
2018-Jan-09 10:00N 38°56' W 075°09'0 0.3
2018-Jan-09 09:30N 38°56' W 075°09'0 0.2
2018-Jan-09 09:00N 38°56' W 075°10'0 0.0
2018-Jan-09 04:15N 38°56' W 075°09'0 0.0
2018-Jan-09 03:54N 38°56' W 075°09'0 0.2
2018-Jan-09 02:27N 38°55' W 075°09'0 0.0
2018-Jan-09 01:54N 38°55' W 075°09'0 0.0
2018-Jan-09 01:27N 38°55' W 075°09'0 0.0
2018-Jan-09 01:00N 38°55' W 075°09'0 0.0
2018-Jan-09 00:09N 38°55' W 075°09'0 0.0
2018-Jan-09 00:00N 38°55' W 075°09'0 0.0
2018-Jan-08 23:30N 38°55' W 075°09'0 0.0
2018-Jan-08 13:30N 38°55' W 075°09'  
Track history (hours):
 
Tides and Currents Weather Stations Pressure Air Temp Water Temp Dewpoint Dewpoint Depression Visibility Wind Speed Wind Dir Waves Ship Positions

Front Thor

Last reported at 2018-Jan-18 12:46 UTC. Time now 2018-Jan-19 21:37 UTC.
Position N 38°50' W 075°04'.

Length 275 m; draft 9.3 m.

Type: Tanker. MMSI: 538003675.

Date/timePositionNaut miles runAvg speedWind from/ knotsBaromVisibWave heightAir tempDewpointWater temp
2018-Jan-18 12:46N 38°50' W 075°04'1411.2
2018-Jan-18 11:33N 39°03' W 075°10'312.6
2018-Jan-18 11:20N 39°05' W 075°11'413.1
2018-Jan-18 11:00N 39°09' W 075°14'713.8
2018-Jan-18 10:30N 39°15' W 075°19'815.8
2018-Jan-18 10:00N 39°21' W 075°26'815.8
2018-Jan-18 09:30N 39°26' W 075°33'713.4
2018-Jan-18 09:01N 39°33' W 075°32'611.8
2018-Jan-18 08:30N 39°39' W 075°33'612.4
2018-Jan-18 08:00N 39°45' W 075°30'510.5
2018-Jan-18 07:30N 39°48' W 075°25'4 7.5
2018-Jan-18 07:00N 39°51' W 075°21'4 7.5
2018-Jan-18 06:30N 39°51' W 075°16'2 5.0
2018-Jan-18 06:00N 39°52' W 075°13'0 0.2
2018-Jan-18 05:30N 39°52' W 075°13'0 0.0
2018-Jan-18 05:00N 39°52' W 075°13'0 0.0
2018-Jan-18 04:30N 39°52' W 075°13'0 0.0
2018-Jan-18 04:00N 39°52' W 075°13'0 0.0
2018-Jan-18 03:30N 39°52' W 075°13'0 0.0
2018-Jan-18 03:00N 39°52' W 075°13'0 0.0
2018-Jan-18 02:30N 39°52' W 075°13'0 0.0
2018-Jan-18 02:00N 39°52' W 075°13'0 0.0
2018-Jan-18 01:30N 39°52' W 075°13'0 0.0
2018-Jan-18 01:00N 39°52' W 075°13'0 0.0
2018-Jan-18 00:00N 39°52' W 075°13'0 0.1
2018-Jan-17 23:57N 39°52' W 075°13'  
2018-Jan-12 05:40N 38°56' W 075°10'0 0.4
2018-Jan-12 05:28N 38°56' W 075°10'0 0.2
2018-Jan-12 04:49N 38°55' W 075°10'0 0.1
2018-Jan-12 04:25N 38°55' W 075°09'0 0.0
2018-Jan-12 02:01N 38°55' W 075°10'0 0.2
2018-Jan-12 00:31N 38°56' W 075°10'0 0.1
2018-Jan-12 00:28N 38°56' W 075°10'0 0.1
2018-Jan-11 23:52N 38°56' W 075°10'0 0.0
2018-Jan-11 09:16N 38°56' W 075°10'0 0.0
2018-Jan-11 07:55N 38°56' W 075°10'0 0.0
2018-Jan-11 07:28N 38°56' W 075°10'0 0.1
2018-Jan-11 05:04N 38°56' W 075°10'0 0.4
2018-Jan-11 04:55N 38°56' W 075°10'0 0.2
2018-Jan-11 04:04N 38°55' W 075°09'0 0.1
2018-Jan-11 03:58N 38°55' W 075°09'0 0.0
2018-Jan-11 03:28N 38°55' W 075°09'0 0.0
2018-Jan-11 02:37N 38°55' W 075°09'0 0.0
2018-Jan-11 02:25N 38°55' W 075°09'0 0.0
2018-Jan-11 01:55N 38°55' W 075°09'0 0.0
2018-Jan-10 23:49N 38°55' W 075°09'0 0.1
2018-Jan-10 19:04N 38°56' W 075°10'0 0.1
2018-Jan-10 19:01N 38°56' W 075°10'0 0.0
2018-Jan-10 18:19N 38°56' W 075°10'0 0.1
2018-Jan-10 15:10N 38°55' W 075°09'0 0.0
2018-Jan-10 14:52N 38°55' W 075°09'0 0.0
2018-Jan-10 14:28N 38°55' W 075°09'0 0.0
2018-Jan-10 13:58N 38°55' W 075°09'0 0.0
2018-Jan-10 13:30N 38°55' W 075°09'0 0.0
2018-Jan-10 13:01N 38°55' W 075°09'0 0.0
2018-Jan-10 12:25N 38°55' W 075°09'0 0.1
2018-Jan-10 11:55N 38°55' W 075°09'0 0.1
2018-Jan-10 10:43N 38°55' W 075°10'0 0.2
2018-Jan-10 10:31N 38°55' W 075°10'0 0.3
2018-Jan-10 10:01N 38°56' W 075°10'0 0.1
2018-Jan-10 09:22N 38°56' W 075°10'0 0.0
2018-Jan-09 15:52N 38°55' W 075°09'0 0.1
2018-Jan-09 15:28N 38°55' W 075°09'0 0.0
2018-Jan-09 14:57N 38°55' W 075°09'0 0.0
2018-Jan-09 14:30N 38°55' W 075°09'0 0.0
2018-Jan-09 13:57N 38°55' W 075°09'0 0.0
2018-Jan-09 13:30N 38°55' W 075°09'0 0.0
2018-Jan-09 13:00N 38°55' W 075°09'0 0.0
2018-Jan-09 12:30N 38°55' W 075°09'0 0.0
2018-Jan-09 12:00N 38°55' W 075°09'0 0.0
2018-Jan-09 11:27N 38°55' W 075°09'0 0.0
2018-Jan-09 11:00N 38°55' W 075°09'0 0.1
2018-Jan-09 10:27N 38°55' W 075°09'0 0.1
2018-Jan-09 10:00N 38°56' W 075°09'0 0.3
2018-Jan-09 09:30N 38°56' W 075°09'0 0.2
2018-Jan-09 09:00N 38°56' W 075°10'0 0.0
2018-Jan-09 04:15N 38°56' W 075°09'0 0.0
2018-Jan-09 03:54N 38°56' W 075°09'0 0.2
2018-Jan-09 02:27N 38°55' W 075°09'0 0.0
2018-Jan-09 01:54N 38°55' W 075°09'0 0.0
2018-Jan-09 01:27N 38°55' W 075°09'0 0.0
2018-Jan-09 01:00N 38°55' W 075°09'0 0.0
2018-Jan-09 00:09N 38°55' W 075°09'0 0.0
2018-Jan-09 00:00N 38°55' W 075°09'0 0.0
2018-Jan-08 23:30N 38°55' W 075°09'0 0.0
2018-Jan-08 13:30N 38°55' W 075°09'  

Dump ship's entire track history